Time;durP1;ratioP1;P1;durP2;ratioP2;P2;SDS_P1;SDS_P2;PMS_P1;PMS_P2;Temp;Humidity;BMP_temperature;BMP_pressure;BME280_temperature;BME280_humidity;BME280_pressure;Samples;Min_cycle;Max_cycle;Signal;HPM_P1;HPM_P2
2024/01/05 00:02:02;;;;;;;;;1.00;1.00;;;;;7.43;88.33;98460.31;5100667;28;8933;-59
2024/01/05 00:04:30;;;;;;;;;1.00;0.00;;;;;7.43;88.39;98455.84;5097574;28;8944;-60
2024/01/05 00:06:58;;;;;;;;;1.00;1.00;;;;;7.45;88.46;98448.63;5097554;28;8944;-59
2024/01/05 00:09:26;;;;;;;;;0.00;0.00;;;;;7.46;88.32;98423.81;5095545;28;8834;-59
2024/01/05 00:11:54;;;;;;;;;0.00;0.00;;;;;7.49;88.37;98414.75;5102882;28;8893;-59
2024/01/05 00:14:21;;;;;;;;;0.00;0.00;;;;;7.50;88.41;98416.44;5106762;28;8828;-58
2024/01/05 00:16:49;;;;;;;;;0.00;0.00;;;;;7.51;88.21;98426.03;5097340;28;8814;-61
2024/01/05 00:19:17;;;;;;;;;0.00;0.00;;;;;7.52;88.81;98449.75;5113188;28;8831;-57
2024/01/05 00:21:45;;;;;;;;;0.25;0.25;;;;;7.54;88.49;98460.19;5118344;28;9481;-57
2024/01/05 00:24:13;;;;;;;;;3.00;2.25;;;;;7.55;88.49;98465.34;5117881;28;8828;-57
2024/01/05 00:26:41;;;;;;;;;1.00;1.00;;;;;7.56;88.01;98445.81;5116304;28;8828;-57
2024/01/05 00:29:09;;;;;;;;;0.00;0.00;;;;;7.58;88.57;98433.28;5118022;28;8812;-58
2024/01/05 00:31:37;;;;;;;;;1.00;1.00;;;;;7.59;88.62;98423.53;5097966;28;8834;-57
2024/01/05 00:34:05;;;;;;;;;0.25;0.00;;;;;7.61;89.03;98437.44;5077416;28;8850;-59
2024/01/05 00:36:33;;;;;;;;;0.00;0.00;;;;;7.63;88.38;98427.53;5075750;28;9517;-58
2024/01/05 00:39:01;;;;;;;;;1.00;1.00;;;;;7.64;88.65;98416.81;5075892;28;8841;-57
2024/01/05 00:41:29;;;;;;;;;1.00;1.00;;;;;7.65;88.38;98404.44;5076523;28;8899;-56
2024/01/05 00:43:57;;;;;;;;;0.50;0.50;;;;;7.66;88.36;98406.91;5075791;28;8824;-56
2024/01/05 00:46:24;;;;;;;;;0.00;0.00;;;;;7.66;88.28;98398.16;5075295;28;8909;-57
2024/01/05 00:48:53;;;;;;;;;0.00;0.00;;;;;7.65;88.38;98391.19;5076515;28;8825;-56
2024/01/05 00:51:20;;;;;;;;;1.00;1.00;;;;;7.67;88.70;98389.22;5074934;28;8962;-56
2024/01/05 00:53:48;;;;;;;;;0.00;0.00;;;;;7.65;88.17;98388.53;5075986;28;8879;-56
2024/01/05 00:56:16;;;;;;;;;1.00;1.00;;;;;7.62;88.53;98376.41;5075890;28;8820;-58
2024/01/05 00:58:43;;;;;;;;;0.75;0.75;;;;;7.63;88.86;98379.88;5075559;28;8840;-58
2024/01/05 01:01:11;;;;;;;;;1.00;1.00;;;;;7.65;88.56;98377.94;5075551;28;8962;-57
2024/01/05 01:03:39;;;;;;;;;0.00;0.00;;;;;7.66;88.71;98375.13;5075833;28;8838;-56
2024/01/05 01:06:07;;;;;;;;;1.00;1.00;;;;;7.67;88.63;98357.44;5076092;28;8978;-59
2024/01/05 01:08:35;;;;;;;;;0.00;0.00;;;;;7.68;88.76;98359.94;5095638;28;8826;-58
2024/01/05 01:11:03;;;;;;;;;0.00;0.00;;;;;7.68;88.57;98363.41;5095339;28;8829;-57
2024/01/05 01:13:31;;;;;;;;;0.00;0.00;;;;;7.70;88.82;98364.09;5095279;28;8838;-57
2024/01/05 01:15:59;;;;;;;;;0.00;0.00;;;;;7.73;88.69;98344.44;5094456;28;8826;-58
2024/01/05 01:18:27;;;;;;;;;0.50;0.50;;;;;7.75;88.91;98351.25;5094472;28;8826;-58
2024/01/05 01:20:55;;;;;;;;;0.00;0.00;;;;;7.79;88.15;98338.56;5094113;28;8883;-58
2024/01/05 01:23:23;;;;;;;;;0.50;0.50;;;;;7.82;88.38;98347.06;5094917;28;8820;-58
2024/01/05 01:25:52;;;;;;;;;0.00;0.00;;;;;7.83;88.31;98354.03;5094032;28;8814;-57
2024/01/05 01:28:20;;;;;;;;;0.00;0.00;;;;;7.84;88.78;98341.63;5094473;28;8806;-56
2024/01/05 01:30:47;;;;;;;;;0.00;0.00;;;;;7.83;88.46;98332.84;5093670;28;8842;-58
2024/01/05 01:33:15;;;;;;;;;0.00;0.00;;;;;7.85;88.54;98341.47;5094626;28;8936;-58
2024/01/05 01:35:43;;;;;;;;;1.00;1.00;;;;;7.89;88.53;98334.06;5093849;28;8825;-55
2024/01/05 01:38:11;;;;;;;;;0.75;0.00;;;;;7.89;88.17;98334.91;5094437;28;8838;-57
2024/01/05 01:40:39;;;;;;;;;0.00;0.00;;;;;7.91;88.34;98332.94;5096181;28;8812;-58
2024/01/05 01:43:06;;;;;;;;;1.00;1.00;;;;;7.95;88.37;98322.88;5099260;28;8909;-56
2024/01/05 01:45:34;;;;;;;;;0.67;0.67;;;;;7.97;88.31;98321.75;5093406;28;8855;-57
2024/01/05 01:48:02;;;;;;;;;0.75;0.75;;;;;7.99;88.43;98332.22;5094667;28;8829;-57
2024/01/05 01:50:30;;;;;;;;;0.00;0.00;;;;;7.99;87.98;98324.28;5094111;28;8810;-56
2024/01/05 01:52:58;;;;;;;;;0.50;0.50;;;;;7.96;88.09;98317.44;5094867;28;8846;-57
2024/01/05 01:55:27;;;;;;;;;0.00;0.00;;;;;7.90;88.27;98315.38;5098415;28;8818;-58
2024/01/05 01:57:54;;;;;;;;;0.00;0.00;;;;;7.82;88.25;98306.47;5088110;28;9574;-56
2024/01/05 02:00:22;;;;;;;;;0.00;0.00;;;;;7.76;88.63;98310.53;5092868;28;8809;-56
2024/01/05 02:02:50;;;;;;;;;0.00;0.00;;;;;7.70;88.36;98308.47;5114309;28;8838;-57
2024/01/05 02:05:18;;;;;;;;;0.00;0.00;;;;;7.73;88.51;98310.00;5114100;28;8843;-57
2024/01/05 02:07:45;;;;;;;;;0.00;0.00;;;;;7.76;88.57;98301.78;5114217;28;8836;-57
2024/01/05 02:10:13;;;;;;;;;1.00;0.75;;;;;7.72;88.55;98286.31;5114793;28;8820;-57
2024/01/05 02:12:42;;;;;;;;;1.00;1.00;;;;;7.74;88.90;98290.47;5103845;28;8826;-56
2024/01/05 02:15:09;;;;;;;;;0.00;0.00;;;;;7.79;88.89;98289.06;5030926;28;1382037;-56
2024/01/05 02:17:37;;;;;;;;;0.00;0.00;;;;;7.89;88.74;98284.56;5074605;28;8906;-58
2024/01/05 02:20:05;;;;;;;;;1.00;1.00;;;;;7.94;88.22;98274.38;5074537;28;8816;-56
2024/01/05 02:22:33;;;;;;;;;1.00;1.00;;;;;7.97;88.46;98268.75;5074827;28;8970;-56
2024/01/05 02:25:00;;;;;;;;;1.50;0.00;;;;;8.03;88.67;98270.84;5074508;28;8891;-57
2024/01/05 02:27:29;;;;;;;;;0.50;0.50;;;;;8.13;88.22;98266.31;5074804;28;8840;-55
2024/01/05 02:29:56;;;;;;;;;0.00;0.00;;;;;8.16;87.67;98258.06;5074440;28;8824;-57
2024/01/05 02:32:24;;;;;;;;;0.00;0.00;;;;;8.19;88.01;98265.75;5075025;28;8816;-56
2024/01/05 02:34:55;;;;;;;;;0.00;0.00;;;;;8.23;88.28;98250.38;5074894;28;8829;-56
2024/01/05 02:37:23;;;;;;;;;0.50;0.50;;;;;8.25;87.97;98253.72;5074300;28;8836;-56
2024/01/05 02:39:51;;;;;;;;;0.00;0.00;;;;;8.27;88.16;98255.22;5074797;28;8839;-57
2024/01/05 02:42:19;;;;;;;;;0.25;0.00;;;;;8.29;88.28;98242.66;5074529;28;8859;-57
2024/01/05 02:44:47;;;;;;;;;0.00;0.00;;;;;8.29;87.98;98247.94;5074803;28;8832;-58
2024/01/05 02:47:14;;;;;;;;;0.00;0.00;;;;;8.28;88.26;98240.16;5074047;28;8923;-56
2024/01/05 02:49:42;;;;;;;;;0.50;0.50;;;;;8.23;87.81;98239.78;5089647;28;8810;-57
2024/01/05 02:52:10;;;;;;;;;0.50;0.50;;;;;8.20;88.03;98240.91;5094885;28;8833;-56
2024/01/05 02:54:38;;;;;;;;;0.00;0.00;;;;;8.21;88.36;98237.25;5093760;28;8818;-57
2024/01/05 02:57:06;;;;;;;;;1.00;1.00;;;;;8.19;87.98;98243.69;5092643;28;9486;-58
2024/01/05 02:59:34;;;;;;;;;0.00;0.00;;;;;8.19;88.14;98241.88;5093111;28;8857;-58
2024/01/05 03:02:02;;;;;;;;;0.25;0.25;;;;;8.19;88.24;98233.94;5089488;28;8837;-59
2024/01/05 03:04:30;;;;;;;;;2.00;1.25;;;;;8.18;88.26;98234.03;5083100;28;8828;-57
2024/01/05 03:06:58;;;;;;;;;0.75;0.00;;;;;8.14;88.19;98232.69;5097852;28;8849;-56
2024/01/05 03:09:25;;;;;;;;;0.00;0.00;;;;;8.11;88.16;98225.88;5107944;28;8947;-56
2024/01/05 03:11:53;;;;;;;;;0.00;0.00;;;;;8.09;88.35;98227.00;5114542;28;8852;-57
2024/01/05 03:14:21;;;;;;;;;0.50;0.50;;;;;8.07;88.38;98218.34;5094434;28;8854;-56
2024/01/05 03:16:49;;;;;;;;;0.00;0.00;;;;;8.04;88.35;98229.25;5098021;28;8822;-56
2024/01/05 03:19:17;;;;;;;;;0.00;0.00;;;;;8.05;88.06;98217.69;5097876;28;8826;-56
2024/01/05 03:21:44;;;;;;;;;1.00;1.00;;;;;8.07;88.16;98216.53;5094964;28;9810;-58
2024/01/05 03:24:12;;;;;;;;;2.50;2.50;;;;;8.05;88.41;98205.25;5079903;28;8828;-55
2024/01/05 03:26:40;;;;;;;;;1.00;1.00;;;;;8.01;88.18;98201.25;5117881;28;8843;-56
2024/01/05 03:29:08;;;;;;;;;0.00;0.00;;;;;7.97;88.54;98205.16;5117901;28;8832;-57
2024/01/05 03:31:36;;;;;;;;;0.75;0.00;;;;;7.95;88.37;98199.19;5117445;28;8832;-57
2024/01/05 03:34:04;;;;;;;;;0.00;0.00;;;;;7.91;88.41;98195.13;5118097;28;8839;-58
2024/01/05 03:36:31;;;;;;;;;0.00;0.00;;;;;7.91;88.30;98191.69;5117812;28;8956;-56
2024/01/05 03:38:59;;;;;;;;;0.00;0.00;;;;;7.91;88.26;98195.13;5106877;28;8824;-56
2024/01/05 03:41:27;;;;;;;;;0.50;0.50;;;;;7.92;88.60;98194.16;5076694;28;8832;-57
2024/01/05 03:43:55;;;;;;;;;0.00;0.00;;;;;7.93;88.82;98189.69;5077092;28;8840;-57
2024/01/05 03:46:23;;;;;;;;;0.00;0.00;;;;;7.91;88.81;98192.50;5076950;28;8836;-58
2024/01/05 03:48:50;;;;;;;;;3.00;1.00;;;;;7.95;88.47;98190.38;5077100;28;8812;-56
2024/01/05 03:51:18;;;;;;;;;0.50;0.50;;;;;7.90;88.40;98185.53;5076778;28;8842;-56
2024/01/05 03:53:46;;;;;;;;;0.50;0.50;;;;;7.92;88.71;98172.13;5077309;28;8828;-58
2024/01/05 03:56:14;;;;;;;;;0.00;0.00;;;;;7.92;88.58;98178.25;5077756;28;8836;-56
2024/01/05 03:58:41;;;;;;;;;1.00;1.00;;;;;7.94;88.18;98175.47;5077282;28;8838;-58
2024/01/05 04:01:10;;;;;;;;;0.00;0.00;;;;;7.91;88.13;98176.59;5081499;28;8806;-57
2024/01/05 04:03:37;;;;;;;;;0.25;0.00;;;;;7.91;88.46;98167.81;5097219;28;8907;-58
2024/01/05 04:06:06;;;;;;;;;0.50;0.00;;;;;7.90;88.41;98166.16;5096531;28;8851;-57
2024/01/05 04:08:34;;;;;;;;;3.00;0.50;;;;;7.89;88.78;98162.66;5095880;28;8833;-58
2024/01/05 04:11:01;;;;;;;;;0.75;0.75;;;;;7.88;88.22;98166.31;5095275;28;9467;-59
2024/01/05 04:13:29;;;;;;;;;0.00;0.00;;;;;7.83;88.16;98154.50;5093551;28;8842;-59
2024/01/05 04:15:57;;;;;;;;;0.00;0.00;;;;;7.76;88.17;98151.59;5095334;28;8818;-59
2024/01/05 04:18:24;;;;;;;;;1.00;0.00;;;;;7.68;88.16;98164.72;5096152;28;8810;-57
2024/01/05 04:20:52;;;;;;;;;0.00;0.00;;;;;7.62;88.87;98153.06;5096357;28;8844;-58
2024/01/05 04:23:20;;;;;;;;;0.00;0.00;;;;;7.56;88.42;98153.66;5096743;28;8932;-58
2024/01/05 04:25:49;;;;;;;;;0.50;0.00;;;;;7.55;88.84;98157.28;5080017;28;8845;-59
2024/01/05 04:28:17;;;;;;;;;0.00;0.00;;;;;7.57;88.82;98150.03;5095348;28;8852;-59
2024/01/05 04:30:45;;;;;;;;;0.00;0.00;;;;;7.59;88.68;98151.53;5095725;28;9563;-57
2024/01/05 04:33:12;;;;;;;;;0.00;0.00;;;;;7.59;88.50;98148.06;5096695;28;9508;-56
2024/01/05 04:35:41;;;;;;;;;0.75;0.00;;;;;7.59;88.63;98153.38;5095199;28;8850;-58
2024/01/05 04:38:09;;;;;;;;;0.00;0.00;;;;;7.60;88.98;98144.44;5095571;28;8830;-58
2024/01/05 04:40:36;;;;;;;;;0.00;0.00;;;;;7.58;88.54;98152.53;5099506;28;8814;-56
2024/01/05 04:43:04;;;;;;;;;0.00;0.00;;;;;7.55;88.68;98151.97;5110715;28;8824;-58
2024/01/05 04:45:32;;;;;;;;;1.50;0.00;;;;;7.54;88.67;98145.03;5114811;28;8840;-56
2024/01/05 04:48:00;;;;;;;;;0.00;0.00;;;;;7.54;88.69;98151.16;5082366;28;9575;-56
2024/01/05 04:50:28;;;;;;;;;0.00;0.00;;;;;7.58;88.62;98146.41;5075798;28;8836;-58
2024/01/05 04:52:55;;;;;;;;;3.00;1.00;;;;;7.62;88.49;98145.13;5076447;28;8816;-57
2024/01/05 04:55:23;;;;;;;;;0.00;0.00;;;;;7.64;88.53;98151.94;5075967;28;9528;-56
2024/01/05 04:57:51;;;;;;;;;0.00;0.00;;;;;7.62;88.25;98147.75;5081245;28;8839;-56
2024/01/05 05:00:19;;;;;;;;;0.75;0.00;;;;;7.62;88.86;98147.75;5116411;28;8847;-56
2024/01/05 05:02:47;;;;;;;;;0.00;0.00;;;;;7.59;88.76;98142.78;5116945;28;8800;-56
2024/01/05 05:05:15;;;;;;;;;0.00;0.00;;;;;7.53;88.35;98136.25;5083928;28;8840;-57
2024/01/05 05:07:43;;;;;;;;;0.00;0.00;;;;;7.48;89.01;98135.84;5074785;28;8839;-56
2024/01/05 05:10:11;;;;;;;;;0.00;0.00;;;;;7.43;88.54;98146.03;5075022;28;8820;-58
2024/01/05 05:12:39;;;;;;;;;0.50;0.00;;;;;7.40;88.72;98149.00;5074965;28;8862;-56
2024/01/05 05:15:07;;;;;;;;;0.00;0.00;;;;;7.41;88.67;98150.66;5075631;28;8824;-58
2024/01/05 05:17:35;;;;;;;;;0.00;0.00;;;;;7.46;88.87;98159.00;5076791;28;9781;-58
2024/01/05 05:20:03;;;;;;;;;0.00;0.00;;;;;7.56;88.79;98137.75;5074835;28;8860;-56
2024/01/05 05:22:30;;;;;;;;;0.00;0.00;;;;;7.65;88.53;98136.91;5075712;28;8828;-58
2024/01/05 05:24:58;;;;;;;;;0.00;0.00;;;;;7.73;88.48;98132.50;5076009;28;9514;-57
2024/01/05 05:27:26;;;;;;;;;0.00;0.00;;;;;7.81;88.29;98132.59;5075710;28;8824;-57
2024/01/05 05:29:54;;;;;;;;;0.00;0.00;;;;;7.87;88.11;98137.28;5075819;28;8891;-56
2024/01/05 05:32:22;;;;;;;;;0.00;0.00;;;;;7.92;88.46;98130.56;5075648;28;8917;-56
2024/01/05 05:34:50;;;;;;;;;0.00;0.00;;;;;7.96;88.16;98134.59;5081476;28;8818;-57
2024/01/05 05:37:18;;;;;;;;;0.00;0.00;;;;;8.00;87.69;98129.81;5094035;28;8956;-57
2024/01/05 05:39:46;;;;;;;;;0.00;0.00;;;;;8.03;87.64;98130.34;5074783;28;8820;-57
2024/01/05 05:42:13;;;;;;;;;0.75;0.75;;;;;8.07;87.52;98130.88;5084158;28;8838;-58
2024/01/05 05:44:41;;;;;;;;;0.50;0.50;;;;;8.11;87.76;98125.13;5092865;28;8850;-55
2024/01/05 05:47:09;;;;;;;;;1.00;0.00;;;;;8.19;87.04;98121.75;5078339;28;10463;-56
2024/01/05 05:49:37;;;;;;;;;0.75;0.75;;;;;8.26;86.93;98118.34;5094174;28;9905;-56
2024/01/05 05:52:06;;;;;;;;;0.50;0.00;;;;;8.31;87.29;98108.13;5093913;28;8950;-56
2024/01/05 05:54:34;;;;;;;;;0.25;0.25;;;;;8.37;87.48;98126.03;5093880;28;8840;-58
2024/01/05 05:57:01;;;;;;;;;0.00;0.00;;;;;8.43;86.74;98120.13;5094438;28;8837;-57
2024/01/05 05:59:29;;;;;;;;;1.00;0.50;;;;;8.47;87.30;98118.88;5099620;28;9468;-57
2024/01/05 06:01:57;;;;;;;;;0.25;0.25;;;;;8.50;86.75;98113.22;5094769;28;8806;-56
2024/01/05 06:04:25;;;;;;;;;0.00;0.00;;;;;8.52;86.82;98107.78;5095377;28;8833;-57
2024/01/05 06:06:52;;;;;;;;;0.75;0.75;;;;;8.53;86.73;98107.59;5093198;28;8993;-58
2024/01/05 06:09:21;;;;;;;;;0.25;0.25;;;;;8.55;86.44;98103.00;5096611;28;9812;-57
2024/01/05 06:11:49;;;;;;;;;0.00;0.00;;;;;8.57;86.25;98098.38;5100673;28;8832;-56
2024/01/05 06:14:16;;;;;;;;;1.00;1.00;;;;;8.60;86.31;98094.59;5075669;28;8840;-57
2024/01/05 06:16:44;;;;;;;;;1.00;1.00;;;;;8.62;86.36;98103.22;5116108;28;8838;-57
2024/01/05 06:19:12;;;;;;;;;0.75;0.75;;;;;8.61;86.34;98102.41;5116406;28;8823;-58
2024/01/05 06:21:40;;;;;;;;;0.50;0.00;;;;;8.61;86.21;98106.84;5115328;28;8831;-57
2024/01/05 06:24:07;;;;;;;;;0.00;0.00;;;;;8.63;86.28;98095.09;5115171;28;8949;-55
2024/01/05 06:26:35;;;;;;;;;0.00;0.00;;;;;8.65;86.19;98121.50;5113724;28;8812;-56
2024/01/05 06:29:03;;;;;;;;;0.00;0.00;;;;;8.68;86.01;98121.16;5089781;28;8853;-55
2024/01/05 06:31:31;;;;;;;;;0.50;0.25;;;;;8.68;85.83;98108.72;5074977;28;8832;-56
2024/01/05 06:34:00;;;;;;;;;0.00;0.00;;;;;8.69;85.66;98115.72;5075181;28;8817;-56
2024/01/05 06:36:29;;;;;;;;;1.00;1.00;;;;;8.70;85.80;98112.06;5075447;28;8820;-58
2024/01/05 06:38:57;;;;;;;;;2.00;2.00;;;;;8.73;85.70;98114.41;5073626;28;8809;-56
2024/01/05 06:41:25;;;;;;;;;0.00;0.00;;;;;8.76;85.16;98111.47;5073786;28;8929;-57
2024/01/05 06:43:53;;;;;;;;;0.50;0.50;;;;;8.78;85.48;98108.63;5074093;28;8879;-57
2024/01/05 06:46:21;;;;;;;;;0.00;0.00;;;;;8.79;85.12;98100.50;5074945;28;9470;-56
2024/01/05 06:48:49;;;;;;;;;0.00;0.00;;;;;8.80;85.09;98098.72;5073567;28;8856;-57
2024/01/05 06:51:17;;;;;;;;;0.00;0.00;;;;;8.79;85.22;98100.50;5076445;28;8848;-56
2024/01/05 06:53:45;;;;;;;;;0.50;0.50;;;;;8.80;84.97;98086.25;5076252;28;8848;-57
2024/01/05 06:56:13;;;;;;;;;1.00;0.50;;;;;8.81;84.87;98084.44;5076450;28;8974;-55
2024/01/05 06:58:42;;;;;;;;;0.00;0.00;;;;;8.78;85.12;98093.53;5076977;28;8836;-58
2024/01/05 07:01:09;;;;;;;;;1.00;1.00;;;;;8.80;84.47;98080.13;5075883;28;8828;-58
2024/01/05 07:03:37;;;;;;;;;4.00;4.00;;;;;8.78;84.90;98077.63;5082997;28;8810;-58
2024/01/05 07:06:05;;;;;;;;;0.00;0.00;;;;;8.72;84.86;98077.41;5097470;28;8826;-58
2024/01/05 07:08:33;;;;;;;;;0.50;0.50;;;;;8.63;84.97;98062.44;5097374;28;8822;-57
2024/01/05 07:11:00;;;;;;;;;1.00;1.00;;;;;8.54;84.93;98069.50;5095717;28;8834;-57
2024/01/05 07:13:28;;;;;;;;;1.00;0.00;;;;;8.48;85.43;98064.81;5096831;28;8854;-57
2024/01/05 07:15:56;;;;;;;;;0.75;0.00;;;;;8.39;85.09;98071.06;5096732;28;8940;-57
2024/01/05 07:18:24;;;;;;;;;1.00;1.00;;;;;8.33;85.30;98079.63;5096335;28;8814;-57
2024/01/05 07:20:52;;;;;;;;;2.50;0.00;;;;;8.30;85.51;98065.84;5096020;28;8818;-57
2024/01/05 07:23:20;;;;;;;;;1.00;0.00;;;;;8.27;85.24;98074.94;5095914;28;8834;-57
2024/01/05 07:25:48;;;;;;;;;1.00;1.00;;;;;8.25;85.34;98068.97;5087526;28;8837;-56
2024/01/05 07:28:16;;;;;;;;;0.00;0.00;;;;;8.25;84.89;98068.97;5097321;28;9529;-57
2024/01/05 07:30:43;;;;;;;;;1.00;1.00;;;;;8.31;84.99;98076.31;5097564;28;9610;-57
2024/01/05 07:33:11;;;;;;;;;0.00;0.00;;;;;8.37;84.62;98073.00;5101461;28;8826;-57
2024/01/05 07:35:40;;;;;;;;;0.75;0.75;;;;;8.42;84.39;98072.53;5097153;28;8826;-56
2024/01/05 07:38:07;;;;;;;;;0.00;0.00;;;;;8.47;84.19;98076.44;5095379;28;8941;-57
2024/01/05 07:40:36;;;;;;;;;0.75;0.00;;;;;8.53;84.31;98069.66;5103662;28;8955;-57
2024/01/05 07:43:03;;;;;;;;;0.00;0.00;;;;;8.57;83.59;98069.19;5116767;28;8903;-57
2024/01/05 07:45:31;;;;;;;;;0.00;0.00;;;;;8.63;83.91;98073.03;5098880;28;8814;-57
2024/01/05 07:47:59;;;;;;;;;0.00;0.00;;;;;8.68;83.44;98071.56;5096689;28;8822;-56
2024/01/05 07:50:27;;;;;;;;;0.75;0.25;;;;;8.71;83.39;98065.97;5097079;28;8826;-56
2024/01/05 07:52:55;;;;;;;;;0.00;0.00;;;;;8.74;83.26;98062.19;5095957;28;8964;-57
2024/01/05 07:55:22;;;;;;;;;1.00;1.00;;;;;8.76;82.82;98062.84;5079001;28;8937;-55
2024/01/05 07:57:50;;;;;;;;;0.00;0.00;;;;;8.79;82.73;98073.13;5112866;28;8966;-57
2024/01/05 08:00:18;;;;;;;;;1.00;0.00;;;;;8.81;83.06;98068.53;5116542;28;8854;-57
2024/01/05 08:02:46;;;;;;;;;0.00;0.00;;;;;8.84;82.64;98070.84;5116510;28;8840;-58
2024/01/05 08:05:14;;;;;;;;;0.00;0.00;;;;;8.86;82.25;98080.31;5116801;28;8838;-57
2024/01/05 08:07:42;;;;;;;;;0.00;0.00;;;;;8.88;82.63;98075.69;5116488;28;8962;-57
2024/01/05 08:10:10;;;;;;;;;0.00;0.00;;;;;8.91;82.40;98078.03;5117153;28;8898;-57
2024/01/05 08:12:36;;;;;;;;;0.50;0.50;;;;;8.92;82.17;98069.09;5078897;28;8824;-57
2024/01/05 08:15:05;;;;;;;;;0.00;0.00;;;;;8.94;81.85;98072.41;5076197;28;8828;-55
2024/01/05 08:17:32;;;;;;;;;0.00;0.00;;;;;8.96;81.99;98059.00;5075926;28;8832;-57
2024/01/05 08:20:01;;;;;;;;;0.00;0.00;;;;;8.99;81.68;98061.31;5075953;28;8828;-55
2024/01/05 08:22:29;;;;;;;;;0.00;0.00;;;;;9.03;81.98;98060.84;5076174;28;8843;-56
2024/01/05 08:24:57;;;;;;;;;1.00;1.00;;;;;9.08;81.62;98066.50;5077042;28;8820;-57
2024/01/05 08:27:25;;;;;;;;;1.50;0.00;;;;;9.14;81.46;98063.22;5077075;28;8979;-57
2024/01/05 08:29:53;;;;;;;;;0.00;0.00;;;;;9.19;81.18;98074.19;5076775;28;8832;-60
2024/01/05 08:32:21;;;;;;;;;0.00;0.00;;;;;9.26;81.12;98063.78;5078416;28;8828;-58
2024/01/05 08:34:49;;;;;;;;;1.00;0.75;;;;;9.33;80.77;98065.63;5096448;28;8822;-57
2024/01/05 08:37:16;;;;;;;;;0.00;0.00;;;;;9.37;80.48;98068.78;5096537;28;8818;-57
2024/01/05 08:39:44;;;;;;;;;0.50;0.50;;;;;9.40;80.42;98076.41;5096700;28;8907;-55
2024/01/05 08:42:12;;;;;;;;;0.00;0.00;;;;;9.37;80.52;98074.94;5096857;28;8822;-58
2024/01/05 08:44:41;;;;;;;;;0.00;0.00;;;;;9.37;80.67;98063.47;5096216;28;8903;-57
2024/01/05 08:47:08;;;;;;;;;0.00;0.00;;;;;9.36;80.27;98067.97;5094146;28;9444;-56
2024/01/05 08:49:36;;;;;;;;;0.00;0.00;;;;;9.35;80.28;98065.47;5095655;28;8826;-57
2024/01/05 08:52:05;;;;;;;;;0.00;0.00;;;;;9.32;79.87;98057.81;5096012;28;8868;-55
2024/01/05 08:54:33;;;;;;;;;0.00;0.00;;;;;9.32;80.21;98066.63;5096064;28;8834;-56
2024/01/05 08:57:01;;;;;;;;;1.00;1.00;;;;;9.34;80.12;98064.63;5095090;28;8830;-57
2024/01/05 08:59:29;;;;;;;;;0.00;0.00;;;;;9.37;79.98;98064.31;5095245;28;8844;-56
2024/01/05 09:01:57;;;;;;;;;0.00;0.00;;;;;9.42;79.49;98061.19;5094530;28;8818;-57
2024/01/05 09:04:26;;;;;;;;;0.00;0.00;;;;;9.45;79.54;98055.53;5095172;28;8849;-56
2024/01/05 09:06:53;;;;;;;;;1.00;0.00;;;;;9.45;79.00;98068.81;5095648;28;8845;-57
2024/01/05 09:09:22;;;;;;;;;0.00;0.00;;;;;9.45;79.50;98067.00;5095452;28;8902;-58
2024/01/05 09:11:50;;;;;;;;;0.50;0.00;;;;;9.46;79.40;98065.16;5095570;28;8837;-58
2024/01/05 09:14:17;;;;;;;;;0.50;0.00;;;;;9.46;78.89;98060.69;5095621;28;8857;-58
2024/01/05 09:16:45;;;;;;;;;0.00;0.00;;;;;9.48;78.68;98069.31;5095947;28;8842;-57
2024/01/05 09:19:13;;;;;;;;;0.00;0.00;;;;;9.51;79.14;98074.34;5096066;28;8822;-59
2024/01/05 09:21:41;;;;;;;;;0.00;0.00;;;;;9.57;78.84;98070.19;5095667;28;8830;-59
2024/01/05 09:24:09;;;;;;;;;0.00;0.00;;;;;9.63;78.89;98074.88;5095804;28;8826;-58
2024/01/05 09:26:37;;;;;;;;;0.50;0.50;;;;;9.61;78.81;98071.50;5094749;28;8826;-57
2024/01/05 09:29:06;;;;;;;;;0.00;0.00;;;;;9.60;78.32;98085.81;5095227;28;8852;-57
2024/01/05 09:31:34;;;;;;;;;0.00;0.00;;;;;9.61;78.03;98082.16;5094941;28;8968;-57
2024/01/05 09:34:02;;;;;;;;;1.00;1.00;;;;;9.61;77.92;98087.47;5094624;28;8826;-58
2024/01/05 09:36:30;;;;;;;;;1.00;1.00;;;;;9.59;78.18;98086.78;5094682;28;8830;-56
2024/01/05 09:38:58;;;;;;;;;0.00;0.00;;;;;9.56;78.29;98079.97;5094383;28;8852;-58
2024/01/05 09:41:26;;;;;;;;;0.00;0.00;;;;;9.56;77.57;98090.59;5093738;28;8838;-57
2024/01/05 09:43:54;;;;;;;;;0.00;0.00;;;;;9.56;77.72;98081.81;5094531;28;8846;-57
2024/01/05 09:46:22;;;;;;;;;0.00;0.00;;;;;9.56;78.18;98092.44;5093932;28;8846;-58
2024/01/05 09:48:50;;;;;;;;;0.00;0.00;;;;;9.57;77.29;98094.09;5094770;28;8842;-58
2024/01/05 09:51:21;;;;;;;;;0.00;0.00;;;;;9.56;77.46;98101.22;5094508;28;8826;-58
2024/01/05 09:53:51;;;;;;;;;0.75;0.00;;;;;9.54;77.20;98097.06;5094654;28;8948;-57
2024/01/05 09:56:19;;;;;;;;;0.00;0.00;;;;;9.54;77.75;98094.41;5093965;28;8960;-59
2024/01/05 09:58:46;;;;;;;;;0.00;0.00;;;;;9.55;77.34;98102.22;5093457;28;8911;-57
2024/01/05 10:01:14;;;;;;;;;0.50;0.50;;;;;9.53;77.22;98098.91;5093974;28;8857;-56
2024/01/05 10:03:42;;;;;;;;;0.25;0.25;;;;;9.51;77.50;98097.41;5093906;28;8818;-57
2024/01/05 10:06:10;;;;;;;;;1.50;0.75;;;;;9.48;77.14;98103.03;5093698;28;8822;-58
2024/01/05 10:08:38;;;;;;;;;0.00;0.00;;;;;9.46;77.08;98099.69;5094517;28;8964;-58
2024/01/05 10:11:07;;;;;;;;;3.00;1.00;;;;;9.45;77.69;98103.34;5094134;28;9495;-57
2024/01/05 10:13:35;;;;;;;;;1.00;1.00;;;;;9.45;77.51;98114.81;5094741;28;8923;-58
2024/01/05 10:16:04;;;;;;;;;0.75;0.75;;;;;9.46;78.17;98108.50;5094678;28;8964;-58
2024/01/05 10:18:33;;;;;;;;;1.00;1.00;;;;;9.48;77.95;98098.53;5094948;28;9468;-57
2024/01/05 10:21:01;;;;;;;;;0.00;0.00;;;;;9.50;77.88;98091.25;5093201;28;8908;-58
2024/01/05 10:23:30;;;;;;;;;1.00;0.50;;;;;9.53;78.14;98088.28;5094285;28;8834;-59
2024/01/05 10:25:58;;;;;;;;;0.00;0.00;;;;;9.62;77.70;98083.81;5097057;28;8834;-56
2024/01/05 10:28:26;;;;;;;;;0.00;0.00;;;;;9.66;77.39;98101.09;5098330;28;8833;-58
2024/01/05 10:30:54;;;;;;;;;0.00;0.00;;;;;9.66;77.52;98080.66;5098597;28;8834;-57
2024/01/05 10:33:22;;;;;;;;;0.00;0.00;;;;;9.82;77.01;98074.56;5098355;28;8830;-60
2024/01/05 10:35:50;;;;;;;;;0.00;0.00;;;;;9.93;76.16;98082.25;5098089;28;8869;-57
2024/01/05 10:38:18;;;;;;;;;1.00;1.00;;;;;9.87;76.64;98082.91;5098642;28;8903;-57
2024/01/05 10:40:46;;;;;;;;;0.00;0.00;;;;;10.39;74.65;98084.31;5097814;28;8845;-59
2024/01/05 10:43:15;;;;;;;;;1.00;1.00;;;;;11.24;73.10;98076.50;5097705;28;8853;-57
2024/01/05 10:45:42;;;;;;;;;0.00;0.00;;;;;11.61;71.46;98068.72;5097749;28;9499;-56
2024/01/05 10:48:13;;;;;;;;;0.00;0.00;;;;;11.30;71.80;98079.28;5097769;28;9781;-58
2024/01/05 10:50:43;;;;;;;;;0.00;0.00;;;;;10.97;72.48;98083.06;5097345;28;8834;-59
2024/01/05 10:53:11;;;;;;;;;0.00;0.00;;;;;10.72;72.82;98089.44;5097406;28;8826;-58
2024/01/05 10:55:41;;;;;;;;;0.00;0.00;;;;;10.55;73.63;98085.13;5097985;28;8840;-57
2024/01/05 10:58:10;;;;;;;;;0.00;0.00;;;;;10.39;73.40;98094.94;5097531;28;8834;-59
2024/01/05 11:00:38;;;;;;;;;0.00;0.00;;;;;10.29;74.12;98087.13;5097827;28;8830;-57
2024/01/05 11:03:07;;;;;;;;;1.00;0.00;;;;;10.21;74.14;98105.75;5096621;28;8976;-59
2024/01/05 11:05:35;;;;;;;;;0.00;0.00;;;;;10.12;74.44;98097.91;5097443;28;8853;-58
2024/01/05 11:08:04;;;;;;;;;0.00;0.00;;;;;10.02;73.71;98100.69;5096816;28;8822;-58
2024/01/05 11:10:32;;;;;;;;;0.00;0.00;;;;;9.92;73.77;98094.69;5096901;28;8837;-59
2024/01/05 11:13:00;;;;;;;;;0.00;0.00;;;;;9.86;74.01;98095.34;5096768;28;8838;-58
2024/01/05 11:15:28;;;;;;;;;0.00;0.00;;;;;9.84;73.97;98104.47;5096908;28;8881;-59
2024/01/05 11:17:56;;;;;;;;;0.00;0.00;;;;;9.83;73.69;98113.44;5097734;28;8826;-57
2024/01/05 11:20:25;;;;;;;;;0.00;0.00;;;;;9.81;74.10;98104.81;5096969;28;8826;-59
2024/01/05 11:22:53;;;;;;;;;0.00;0.00;;;;;9.79;74.11;98112.94;5097633;28;9484;-59
2024/01/05 11:25:20;;;;;;;;;0.00;0.00;;;;;9.77;73.73;98111.41;5097588;28;8822;-59
2024/01/05 11:27:48;;;;;;;;;0.00;0.00;;;;;9.73;73.17;98112.75;5097285;28;8830;-58
2024/01/05 11:30:16;;;;;;;;;0.00;0.00;;;;;9.68;73.44;98112.41;5096222;28;8822;-57
2024/01/05 11:32:47;;;;;;;;;0.00;0.00;;;;;9.60;73.99;98107.06;5095713;28;8826;-57
2024/01/05 11:35:15;;;;;;;;;0.00;0.00;;;;;9.53;73.47;98101.56;5096407;28;8915;-58
2024/01/05 11:37:43;;;;;;;;;0.00;0.00;;;;;9.46;73.95;98100.53;5095832;28;9757;-59
2024/01/05 11:40:11;;;;;;;;;1.00;0.00;;;;;9.43;73.43;98100.03;5096081;28;8972;-57
2024/01/05 11:42:44;;;;;;;;;0.00;0.00;;;;;9.38;73.44;98087.22;5095979;28;8826;-57
2024/01/05 11:45:13;;;;;;;;;0.00;0.00;;;;;9.35;73.79;98095.50;5097207;28;8814;-58
2024/01/05 11:47:40;;;;;;;;;0.00;0.00;;;;;9.31;73.84;98091.50;5097214;28;8988;-59
2024/01/05 11:50:08;;;;;;;;;0.00;0.00;;;;;9.27;74.15;98106.09;5096530;28;8826;-57
2024/01/05 11:52:36;;;;;;;;;0.00;0.00;;;;;9.24;73.47;98087.81;5096307;28;8949;-57